東京国際空港の過去48時間の天気

東京国際空港 (Tokyo/Intl)

現在時刻: 10/18 13:00 JST (10/18 04:00 UTC) 以下の時間は現地時間です。

過去48時間のMETAR気象情報
時間 風向 風速(m/s) 視程 気温(℃) 湿度(%) 気圧(hPa) 天気現象
18 12:30 北東 6 10km以上 21 64 1015
18 12:00 北東 4 10km以上 21 60 1015
18 11:30 東北東 5 10km以上 20 60 1016
18 11:00 北東 5 10km以上 20 64 1015
18 10:30 北北東 6 10km以上 19 68 1016
18 10:00 北北東 6 10km以上 19 68 1016
18 09:30 北北東 6 10km以上 18 73 1016
18 09:00 北北東 6 10km以上 18 68 1016
18 08:30 北北東 7 10km以上 18 73 1016
18 08:00 7 10km以上 17 72 1016
18 07:30 北北東 7 10km以上 17 72 1016
18 07:00 6 10km以上 17 72 1016
18 06:30 7 10km以上 17 77 1015
18 06:00 6 10km以上 17 72 1015
18 05:30 6 10km以上 17 72 1015
18 05:00 北北東 6 10km以上 17 72 1015
18 04:30 6 10km以上 17 72 1015
18 04:00 6 10km以上 17 72 1015
18 03:30 6 10km以上 17 72 1014
18 03:00 6 10km以上 17 77 1014
18 02:30 7 10km以上 17 77 1014
18 02:00 7 10km以上 17 77 1014
18 01:30 北北東 6 10km以上 17 83 1014
18 01:00 北北東 6 10km以上 17 83 1014
18 00:30 6 10km以上 17 83 1014
18 00:00 北北東 5 10km以上 17 77 1014
17 23:30 北北東 5 10km以上 18 73 1014
17 23:00 北北東 6 10km以上 18 77 1014
17 22:30 北北東 6 10km以上 18 77 1014
17 22:00 北北東 6 10km以上 18 77 1014
17 21:30 北東 6 10km以上 18 77 1014
17 21:00 北東 6 10km以上 18 77 1014
17 20:30 北東 7 10km以上 19 73 1014 弱い雨
17 20:00 北東 7 10km以上 19 73 1013 弱い雨
17 19:30 北東 8 10km以上 19 73 1013
17 19:00 北東 8 10km以上 19 73 1013
17 18:30 東北東 7 10km以上 19 78 1013
17 18:00 北東 8 10km以上 19 78 1012 弱い雨
17 17:30 東北東 7 10km以上 19 83 1012 弱い雨
17 17:00 東北東 8 10km以上 20 73 1011 弱い雨
17 16:30 東北東 7 10km以上 20 73 1010 弱い雨
17 16:00 東北東 8 10km以上 20 73 1010 弱い雨
17 15:30 東北東 8 10km以上 21 69 1010
17 15:00 北東 7 10km以上 21 69 1009
17 14:30 北東 7 10km以上 21 69 1009
17 14:00 5 10km以上 21 73 1009
17 13:30 3 10km以上 21 73 1009
17 13:00 北東 3 10km以上 22 60 1009
17 12:30 北北東 4 10km以上 22 60 1009
17 12:00 2 10km以上 21 64 1009
17 11:30 北北東 2 10km以上 20 64 1010
17 11:00 北東 3 10km以上 20 64 1010
17 10:30 北北東 4 10km以上 20 68 1010
17 10:00 4 10km以上 20 64 1010
17 09:30 5 10km以上 19 68 1010
17 09:00 5 10km以上 19 68 1010
17 08:30 北北西 5 10km以上 18 77 1010
17 08:00 5 10km以上 18 77 1010 弱い雨
17 07:30 北北西 4 10km以上 18 77 1010 周辺でしゅう雨
17 07:00 5 10km以上 18 77 1010 弱い雨
17 06:30 5 10km以上 17 83 1009 弱い雨
17 06:00 4 10km以上 17 83 1009 弱い雨
17 05:30 4 10km以上 17 88 1009 弱い雨
17 05:00 5 10km以上 17 88 1009 弱い雨
17 04:30 北北西 4 10km以上 17 88 1009 弱い雨
17 04:00 5 10km以上 18 83 1008 弱い雨
17 03:30 北北西 4 10km以上 18 83 1008 弱い雨
17 03:00 北北西 5 10km以上 18 83 1009
17 02:30 北北西 6 10km以上 18 83 1008
17 02:00 北北西 4 10km以上 18 83 1008 弱い雨
17 01:30 北北西 4 10km以上 18 83 1009 弱い雨
17 01:00 4 10km以上 19 83 1009 弱い雨
17 00:41 4 10km以上 19 83 1009 弱い雨
17 00:30 4 10km以上 19 83 1009
17 00:00 5 10km以上 19 83 1010 弱い雨
16 23:30 5 10km以上 19 83 1010
16 23:00 5 10km以上 19 83 1009
16 22:30 6 10km以上 19 83 1010
16 22:00 北北東 6 10km以上 19 83 1010
16 21:30 北北東 6 10km以上 19 83 1010
16 21:00 北北東 5 10km以上 19 88 1010
16 20:30 北北東 5 10km以上 19 88 1010
16 20:00 北北東 5 10km以上 19 83 1011
16 19:30 北東 6 10km以上 20 78 1011
16 19:00 北東 6 10km以上 20 83 1011
16 18:30 北東 6 10km以上 20 83 1011
16 18:00 北東 4 10km以上 20 78 1011
16 17:30 北東 4 10km以上 21 69 1011
16 17:00 北東 3 10km以上 21 69 1011
16 16:30 東北東 2 10km以上 21 69 1011
16 16:00 3 10km以上 21 69 1011
16 15:30 北北東 3 10km以上 21 64 1011
16 15:00 3 10km以上 21 60 1012
16 14:30 北北東 2 10km以上 21 60 1012
16 14:00 2 10km以上 21 60 1012
16 13:30 3 10km以上 21 60 1012
RJTT 180330Z 05011KT 9999 FEW030 SCT040 BKN090 21/14 Q1015 NOSIG RMK 1CU030 4SC040 6AC090 A2998
RJTT 180300Z 04007KT 350V060 9999 FEW025 SCT035 BKN100 21/13 Q1015 NOSIG RMK 1CU025 3CU035 5AC100 A3000
RJTT 180230Z 06009KT 9999 FEW025 SCT/// 20/12 Q1016 NOSIG RMK 1CU025 A3000
RJTT 180200Z 04009KT 9999 FEW020 SCT/// 20/13 Q1015 NOSIG RMK 1CU020 A3000
RJTT 180130Z 03012KT 9999 FEW020 SCT180 19/13 Q1016 NOSIG RMK 1CU020 3AC180 A3000
RJTT 180100Z 02011KT 9999 FEW020 BKN090 19/13 Q1016 NOSIG RMK 1CU020 5AC090 A3002
RJTT 180030Z 02011KT 9999 FEW020 BKN100 18/13 Q1016 NOSIG RMK 1CU020 6AC100 A3002
RJTT 180000Z 02012KT 9999 FEW020 BKN100 18/12 Q1016 NOSIG RMK 1CU020 5AC100 A3002
RJTT 172330Z 02013KT 9999 FEW020 BKN100 18/13 Q1016 NOSIG RMK 1CU020 5AC100 A3001
RJTT 172300Z 01014KT 9999 FEW020 SCT100 17/12 Q1016 NOSIG RMK 1CU020 3AC100 A3002
RJTT 172230Z 02013KT 9999 FEW020 SCT100 17/12 Q1016 NOSIG RMK 1CU020 3AC100 A3001
RJTT 172200Z 01012KT 9999 FEW020 BKN100 17/12 Q1016 NOSIG RMK 1CU020 5AC100 A3001
RJTT 172130Z 01013KT 9999 FEW020 SCT090 17/13 Q1015 NOSIG RMK 1CU020 3AC090 A3000
RJTT 172100Z 01012KT 9999 FEW020 17/12 Q1015 NOSIG RMK 1CU020 A2999
RJTT 172030Z 01011KT 9999 FEW020 17/12 Q1015 NOSIG RMK 1CU020 A2999
RJTT 172000Z 02012KT 9999 FEW015 17/12 Q1015 NOSIG RMK 1CU015 A2998
RJTT 171930Z 01012KT 9999 FEW015 17/12 Q1015 NOSIG RMK 1CU015 A2997
RJTT 171900Z 01011KT 9999 FEW015 17/12 Q1015 NOSIG RMK 1CU015 A2997
RJTT 171830Z 01011KT 9999 FEW015 SCT/// 17/12 Q1014 NOSIG
RJTT 171800Z 01012KT 9999 FEW015 SCT/// 17/13 Q1014 NOSIG RMK 1CU015 A2996
RJTT 171730Z 01013KT 9999 FEW015 BKN/// 17/13 Q1014 NOSIG
RJTT 171700Z 01013KT 9999 FEW015 BKN/// 17/13 Q1014 NOSIG RMK 1CU015 A2995
RJTT 171630Z 02012KT 9999 FEW015 SCT070 BKN/// 17/14 Q1014 NOSIG
RJTT 171600Z 02012KT 9999 FEW015 SCT/// 17/14 Q1014 NOSIG RMK 1CU015 A2995
RJTT 171530Z 01012KT 9999 FEW015 BKN/// 17/14 Q1014 NOSIG
RJTT 171500Z 03009KT 9999 FEW020 BKN/// 17/13 Q1014 NOSIG RMK 1CU020 A2995
RJTT 171430Z 03009KT 9999 FEW020 SCT110 BKN/// 18/13 Q1014 NOSIG RMK 1CU020 3AC110 A2995
RJTT 171400Z 03011KT 9999 FEW020 BKN110 BKN/// 18/14 Q1014 NOSIG RMK 1CU020 6AC110 A2994
RJTT 171330Z 03011KT 9999 FEW020 SCT110 BKN/// 18/14 Q1014 NOSIG
RJTT 171300Z 03012KT 9999 FEW020 BKN/// 18/14 Q1014 NOSIG RMK 1CU020 A2996
RJTT 171230Z 04011KT 9999 FEW020 SCT090 BKN/// 18/14 Q1014 NOSIG
RJTT 171200Z 04011KT 9999 FEW020 SCT040 BKN080 18/14 Q1014 NOSIG RMK 1CU020 3SC040 7AC080 A2995
RJTT 171130Z 05013KT 9999 -RA FEW020 SCT040 BKN080 19/14 Q1014 NOSIG RMK 1CU020 3SC040 7AC080 A2994
RJTT 171100Z 05013KT 9999 -RA FEW020 BKN070 19/14 Q1013 NOSIG RMK 1CU020 7AC070 A2994
RJTT 171030Z 05015KT 9999 FEW020 BKN070 BKN100 19/14 Q1013 NOSIG RMK 1CU020 5AC070 7AC100 A2992
RJTT 171000Z 05015KT 9999 FEW020 BKN070 19/14 Q1013 NOSIG RMK 1CU020 7AC070 A2992
RJTT 170930Z 06013KT 9999 FEW020 BKN070 19/15 Q1013 BECMG 05014KT
RJTT 170900Z 05015KT 9999 -RA FEW020 BKN060 BKN100 19/15 Q1012 NOSIG RMK 1CU020 5SC060 7AC100 A2990
RJTT 170830Z 07013KT 9999 -RA FEW020 BKN060 BKN100 19/16 Q1012 NOSIG RMK 1CU020 5SC060 7AC100 A2989
RJTT 170800Z 07016KT 9999 -RA FEW025 BKN060 BKN100 20/15 Q1011 NOSIG RMK 1CU025 6SC060 7AC100 A2987 MOD TURB OBS AT 0747Z TAURA BTN 11000FT AND 12000FT IN CMB BY B738
RJTT 170730Z 07014KT 9999 -RA FEW030 BKN060 BKN070 20/15 Q1010 NOSIG RMK 1CU030 6SC060 7AC070 A2985 MOD TURB OBS AT 0704Z BAYGE BTN 10000FT AND 13000FT IN CMB BY B737
RJTT 170700Z 07015KT 9999 -RA FEW030 BKN060 BKN070 20/15 Q1010 NOSIG RMK 1CU030 6SC060 7AC070 A2985 MOD TURB OBS AT 0633Z 10NM S ARLON BTN 9000FT AND 7500FT IN DES BY B738
RJTT 170630Z 07016KT 9999 FEW030 SCT045 BKN060 21/15 Q1010 BECMG 05014KT
RJTT 170600Z 05013KT 9999 FEW030 SCT040 BKN070 21/15 Q1009 NOSIG RMK 1CU030 4SC040 7AC070 A2982
RJTT 170530Z 05013KT 9999 FEW030 SCT050 BKN080 21/15 Q1009 NOSIG RMK 1CU030 3SC050 5AC080 A2982
RJTT 170500Z 08010KT 9999 FEW030 SCT045 BKN/// 21/16 Q1009 BECMG 05010KT RMK 1CU030 3CU045 A2981
RJTT 170430Z 09006KT 030V120 9999 FEW020 SCT045 BKN/// 21/16 Q1009 BECMG 05008KT
RJTT 170400Z 05006KT 010V090 9999 FEW020 BKN/// 22/14 Q1009 NOSIG RMK 1CU020 A2981 MOD TURB OBS AT 0343Z AROUND COLOR 11000FT IN DES BY B737
RJTT 170330Z 02007KT 360V060 9999 FEW020 BKN/// 22/14 Q1009 NOSIG RMK 1CU020 A2982
RJTT 170300Z 08003KT 9999 FEW020 SCT130 BKN/// 21/14 Q1009 NOSIG RMK 1CU020 3AC130 A2982
RJTT 170230Z 03003KT 360V070 9999 FEW020 SCT130 BKN/// 20/13 Q1010 NOSIG
RJTT 170200Z 04005KT 9999 FEW020 BKN130 BKN/// 20/13 Q1010 NOSIG RMK 1CU020 5AC130 A2984
RJTT 170130Z 02008KT 9999 FEW020 BKN130 20/14 Q1010 NOSIG RMK 1CU020 5AC130 A2984
RJTT 170100Z 36007KT 9999 FEW020 BKN140 20/13 Q1010 NOSIG RMK 1CU020 5AC140 A2984
RJTT 170030Z 35009KT 9999 FEW020 BKN130 19/13 Q1010 NOSIG RMK 1CU020 6AC130 A2985
RJTT 170000Z 35009KT 9999 FEW020 BKN130 BKN/// 19/13 Q1010 NOSIG RMK 1CU020 5AC130 A2985
RJTT 162330Z 34009KT 9999 FEW015 BKN130 18/14 Q1010 NOSIG RMK 1CU015 6AC130 A2984
RJTT 162300Z 35009KT 9999 -RA FEW015 BKN120 18/14 Q1010 NOSIG RMK 1CU015 6AC120 A2984
RJTT 162230Z 34007KT 9999 VCSH FEW010 SCT120 BKN130 18/14 Q1010 NOSIG RMK 1ST010 4AS120 5AC130 A2984
RJTT 162200Z 36010KT 9999 -RA FEW010 SCT120 BKN130 18/14 Q1010 NOSIG RMK 1ST010 4AS120 5AC130 A2983
RJTT 162130Z 36009KT 9999 -RA FEW010 SCT120 BKN130 17/14 Q1009 NOSIG RMK 1ST010 4AS120 5AC130 A2982
RJTT 162100Z 36008KT 9999 -RA FEW010 BKN110 BKN150 17/14 Q1009 NOSIG RMK 1ST010 6AC110 7AS150 A2982
RJTT 162030Z 35008KT 9999 -RA FEW010 OVC110 17/15 Q1009 NOSIG RMK 1ST010 8AS110 A2980
RJTT 162000Z 35010KT 9999 -RA FEW025 OVC110 17/15 Q1009 NOSIG RMK 1CU025 8AS110 A2981
RJTT 161930Z 33007KT 9999 -RA FEW025 OVC110 17/15 Q1009 NOSIG RMK 1CU025 8AS110 A2981
RJTT 161900Z 35009KT 9999 -RA FEW025 OVC110 18/15 Q1008 NOSIG RMK 1CU025 8AS110 A2979
RJTT 161830Z 34007KT 9999 -RA FEW025 BKN110 OVC140 18/15 Q1008 NOSIG RMK 1CU025 6AC110 8AS140 A2979
RJTT 161800Z 34010KT 9999 FEW020 BKN090 BKN140 18/15 Q1009 NOSIG RMK 2SC020 6AC090 7AS140 A2980
RJTT 161730Z 34011KT 9999 FEW020 BKN090 BKN140 18/15 Q1008 NOSIG RMK 2SC020 5AC090 7AS140 A2979
RJTT 161700Z 34008KT 9999 -RA FEW015 SCT020 OVC150 18/15 Q1008 NOSIG RMK 1CU015 3SC020 8AS150 A2979
RJTT 161630Z 34008KT 9999 -RA FEW020 BKN130 BKN150 18/15 Q1009 NOSIG RMK 2SC020 6AS130 7AC150 A2979
RJTT 161600Z 35008KT 9999 -RA FEW015 OVC110 19/16 Q1009 NOSIG RMK 1CU015 8AS110 A2980
RJTT 161541Z 35007KT 9999 -RA FEW015 SCT020 OVC110 19/16 Q1009 RMK 1CU015 3SC020 8AS110 A2981
RJTT 161530Z 35008KT 9999 RA FEW015 SCT020 OVC110 19/16 Q1009 BECMG -RA
RJTT 161500Z 36010KT 9999 -RA FEW015 SCT020 OVC100 19/16 Q1010 NOSIG RMK 1CU015 3SC020 8AS100 A2983
RJTT 161430Z 35009KT 9999 FEW015 SCT060 BKN120 19/16 Q1010 NOSIG RMK 1CU015 4SC060 7AC120 A2982
RJTT 161400Z 36010KT 9999 FEW015 SCT060 BKN130 19/16 Q1009 NOSIG RMK 1CU015 3SC060 7AC130 A2982
RJTT 161330Z 01012KT 9999 FEW015 BKN130 OVC200 19/16 Q1010 NOSIG RMK 1CU015 6AC130 8AS200 A2983
RJTT 161300Z 02011KT 9999 FEW015 BKN060 BKN140 19/16 Q1010 NOSIG RMK 1CU015 5SC060 7AC140 A2984
RJTT 161230Z 02011KT 9999 FEW015 SCT060 OVC150 19/16 Q1010 NOSIG RMK 1CU015 3SC060 8AS150 A2984
RJTT 161200Z 03009KT 9999 FEW015 BKN060 OVC180 19/17 Q1010 NOSIG RMK 1CU015 5SC060 8AS180 A2985
RJTT 161130Z 02010KT 9999 FEW015 SCT060 OVC190 19/17 Q1010 NOSIG RMK 1CU015 3SC060 8AS190 A2984
RJTT 161100Z 03009KT 9999 FEW015 SCT025 BKN060 19/16 Q1011 NOSIG RMK 1CU015 3SC025 6SC060 A2986
RJTT 161030Z 04011KT 9999 FEW015 SCT060 OVC210 20/16 Q1011 NOSIG RMK 1CU015 4SC060 8AS210 A2985
RJTT 161000Z 05011KT 9999 FEW030 BKN060 OVC200 20/17 Q1011 NOSIG RMK 1CU030 5SC060 8AS200 A2986
RJTT 160930Z 04011KT 9999 FEW030 SCT060 OVC200 20/17 Q1011 NOSIG RMK 1CU030 3SC060 8AS200 A2987
RJTT 160900Z 04008KT 9999 FEW030 SCT060 OVC180 20/16 Q1011 NOSIG RMK 1CU030 4SC060 8AS180 A2986
RJTT 160830Z 04008KT 9999 FEW030 SCT070 OVC/// 21/15 Q1011 NOSIG
RJTT 160800Z 05006KT 9999 FEW030 BKN070 OVC/// 21/15 Q1011 NOSIG
RJTT 160730Z 07004KT 9999 FEW025 SCT070 OVC/// 21/15 Q1011 BECMG 04008KT
RJTT 160700Z 08005KT 9999 FEW030 SCT070 OVC/// 21/15 Q1011 BECMG 04008KT
RJTT 160630Z 03005KT 9999 FEW030 OVC/// 21/14 Q1011 NOSIG RMK 1CU030 A2988
RJTT 160600Z 01005KT 9999 FEW030 OVC/// 21/13 Q1012 NOSIG RMK 1CU030 A2988
RJTT 160530Z 02003KT 330V060 9999 FEW030 SCT070 OVC/// 21/13 Q1012 NOSIG
RJTT 160500Z 35004KT 9999 FEW030 SCT060 OVC/// 21/13 Q1012 NOSIG RMK 1CU030 3SC060 A2990
RJTT 160430Z 36005KT 9999 FEW030 SCT050 OVC/// 21/13 Q1012 NOSIG RMK 1CU030 3SC050 A2991